sensor_id;sensor_type;location;lat;lon;timestamp;P1;durP1;ratioP1;P2;durP2;ratioP2
67130;SDS011;54051;53.464;49.532;2023-04-19T00:00:57;7.43;;;3.42;;
67130;SDS011;54051;53.464;49.532;2023-04-19T00:03:26;6.72;;;3.40;;
67130;SDS011;54051;53.464;49.532;2023-04-19T00:05:55;8.60;;;3.83;;
67130;SDS011;54051;53.464;49.532;2023-04-19T00:08:26;9.73;;;3.60;;
67130;SDS011;54051;53.464;49.532;2023-04-19T00:10:52;9.30;;;3.72;;
67130;SDS011;54051;53.464;49.532;2023-04-19T00:13:18;8.68;;;3.47;;
67130;SDS011;54051;53.464;49.532;2023-04-19T00:15:46;7.03;;;3.15;;
67130;SDS011;54051;53.464;49.532;2023-04-19T00:18:12;8.27;;;3.17;;
67130;SDS011;54051;53.464;49.532;2023-04-19T00:20:38;8.13;;;3.00;;
67130;SDS011;54051;53.464;49.532;2023-04-19T00:23:04;7.18;;;3.15;;
67130;SDS011;54051;53.464;49.532;2023-04-19T00:25:30;8.13;;;3.55;;
67130;SDS011;54051;53.464;49.532;2023-04-19T00:27:59;9.25;;;3.50;;
67130;SDS011;54051;53.464;49.532;2023-04-19T00:30:25;7.18;;;3.60;;
67130;SDS011;54051;53.464;49.532;2023-04-19T00:32:50;9.10;;;3.95;;
67130;SDS011;54051;53.464;49.532;2023-04-19T00:35:17;8.55;;;4.10;;
67130;SDS011;54051;53.464;49.532;2023-04-19T00:37:43;8.77;;;3.60;;
67130;SDS011;54051;53.464;49.532;2023-04-19T00:40:09;8.68;;;4.10;;
67130;SDS011;54051;53.464;49.532;2023-04-19T00:42:36;12.68;;;4.05;;
67130;SDS011;54051;53.464;49.532;2023-04-19T00:45:02;8.60;;;4.10;;
67130;SDS011;54051;53.464;49.532;2023-04-19T00:47:29;10.15;;;3.80;;
67130;SDS011;54051;53.464;49.532;2023-04-19T00:49:55;12.90;;;6.40;;
67130;SDS011;54051;53.464;49.532;2023-04-19T00:52:21;10.40;;;4.57;;
67130;SDS011;54051;53.464;49.532;2023-04-19T00:54:47;7.50;;;3.75;;
67130;SDS011;54051;53.464;49.532;2023-04-19T00:57:14;8.02;;;3.60;;
67130;SDS011;54051;53.464;49.532;2023-04-19T00:59:42;8.52;;;3.67;;
67130;SDS011;54051;53.464;49.532;2023-04-19T01:02:08;9.30;;;4.07;;
67130;SDS011;54051;53.464;49.532;2023-04-19T01:04:35;11.43;;;4.55;;
67130;SDS011;54051;53.464;49.532;2023-04-19T01:07:01;8.23;;;3.67;;
67130;SDS011;54051;53.464;49.532;2023-04-19T01:09:27;10.70;;;4.53;;
67130;SDS011;54051;53.464;49.532;2023-04-19T01:11:53;12.27;;;4.55;;
67130;SDS011;54051;53.464;49.532;2023-04-19T01:14:20;10.25;;;4.20;;
67130;SDS011;54051;53.464;49.532;2023-04-19T01:16:46;11.00;;;4.70;;
67130;SDS011;54051;53.464;49.532;2023-04-19T01:19:12;9.63;;;4.30;;
67130;SDS011;54051;53.464;49.532;2023-04-19T01:21:38;8.10;;;4.22;;
67130;SDS011;54051;53.464;49.532;2023-04-19T01:24:05;9.10;;;4.15;;
67130;SDS011;54051;53.464;49.532;2023-04-19T01:26:31;7.88;;;3.80;;
67130;SDS011;54051;53.464;49.532;2023-04-19T01:28:57;8.60;;;3.55;;
67130;SDS011;54051;53.464;49.532;2023-04-19T01:31:23;11.27;;;4.03;;
67130;SDS011;54051;53.464;49.532;2023-04-19T01:33:49;11.35;;;4.47;;
67130;SDS011;54051;53.464;49.532;2023-04-19T01:36:15;9.20;;;4.18;;
67130;SDS011;54051;53.464;49.532;2023-04-19T01:38:41;8.10;;;3.80;;
67130;SDS011;54051;53.464;49.532;2023-04-19T01:41:07;9.90;;;4.18;;
67130;SDS011;54051;53.464;49.532;2023-04-19T01:43:33;11.23;;;4.25;;
67130;SDS011;54051;53.464;49.532;2023-04-19T01:45:59;11.30;;;4.88;;
67130;SDS011;54051;53.464;49.532;2023-04-19T01:48:25;10.70;;;4.63;;
67130;SDS011;54051;53.464;49.532;2023-04-19T01:50:51;12.10;;;4.63;;
67130;SDS011;54051;53.464;49.532;2023-04-19T01:53:17;7.85;;;4.00;;
67130;SDS011;54051;53.464;49.532;2023-04-19T01:55:43;10.10;;;4.38;;
67130;SDS011;54051;53.464;49.532;2023-04-19T01:58:10;11.07;;;4.28;;
67130;SDS011;54051;53.464;49.532;2023-04-19T02:00:36;9.95;;;4.53;;
67130;SDS011;54051;53.464;49.532;2023-04-19T02:03:01;12.35;;;4.97;;
67130;SDS011;54051;53.464;49.532;2023-04-19T02:05:28;11.57;;;4.72;;
67130;SDS011;54051;53.464;49.532;2023-04-19T02:07:54;10.25;;;4.18;;
67130;SDS011;54051;53.464;49.532;2023-04-19T02:10:20;9.88;;;4.30;;
67130;SDS011;54051;53.464;49.532;2023-04-19T02:12:46;10.73;;;4.70;;
67130;SDS011;54051;53.464;49.532;2023-04-19T02:15:13;8.65;;;3.85;;
67130;SDS011;54051;53.464;49.532;2023-04-19T02:17:39;10.90;;;4.30;;
67130;SDS011;54051;53.464;49.532;2023-04-19T02:20:05;9.27;;;3.92;;
67130;SDS011;54051;53.464;49.532;2023-04-19T02:22:32;10.57;;;4.47;;
67130;SDS011;54051;53.464;49.532;2023-04-19T02:24:59;13.05;;;4.40;;
67130;SDS011;54051;53.464;49.532;2023-04-19T02:27:25;12.23;;;4.93;;
67130;SDS011;54051;53.464;49.532;2023-04-19T02:29:51;9.75;;;4.60;;
67130;SDS011;54051;53.464;49.532;2023-04-19T02:32:17;11.30;;;4.38;;
67130;SDS011;54051;53.464;49.532;2023-04-19T02:34:43;12.48;;;4.65;;
67130;SDS011;54051;53.464;49.532;2023-04-19T02:37:09;15.43;;;4.50;;
67130;SDS011;54051;53.464;49.532;2023-04-19T02:39:35;12.20;;;4.40;;
67130;SDS011;54051;53.464;49.532;2023-04-19T02:42:01;17.92;;;4.78;;
67130;SDS011;54051;53.464;49.532;2023-04-19T02:44:28;12.10;;;4.50;;
67130;SDS011;54051;53.464;49.532;2023-04-19T02:46:54;8.95;;;4.30;;
67130;SDS011;54051;53.464;49.532;2023-04-19T02:49:20;13.82;;;4.40;;
67130;SDS011;54051;53.464;49.532;2023-04-19T02:51:46;9.68;;;3.95;;
67130;SDS011;54051;53.464;49.532;2023-04-19T02:54:12;11.32;;;3.95;;
67130;SDS011;54051;53.464;49.532;2023-04-19T02:56:39;9.13;;;3.83;;
67130;SDS011;54051;53.464;49.532;2023-04-19T02:59:05;8.75;;;3.90;;
67130;SDS011;54051;53.464;49.532;2023-04-19T03:01:31;9.90;;;3.65;;
67130;SDS011;54051;53.464;49.532;2023-04-19T03:03:57;8.65;;;4.00;;
67130;SDS011;54051;53.464;49.532;2023-04-19T03:06:23;10.07;;;4.00;;
67130;SDS011;54051;53.464;49.532;2023-04-19T03:08:51;10.13;;;4.30;;
67130;SDS011;54051;53.464;49.532;2023-04-19T03:11:17;10.98;;;4.07;;
67130;SDS011;54051;53.464;49.532;2023-04-19T03:13:43;11.20;;;4.03;;
67130;SDS011;54051;53.464;49.532;2023-04-19T03:16:09;12.43;;;4.05;;
67130;SDS011;54051;53.464;49.532;2023-04-19T03:18:36;14.45;;;4.20;;
67130;SDS011;54051;53.464;49.532;2023-04-19T03:21:02;12.13;;;3.83;;
67130;SDS011;54051;53.464;49.532;2023-04-19T03:23:28;6.70;;;3.40;;
67130;SDS011;54051;53.464;49.532;2023-04-19T03:25:54;7.38;;;3.35;;
67130;SDS011;54051;53.464;49.532;2023-04-19T03:28:21;9.85;;;4.10;;
67130;SDS011;54051;53.464;49.532;2023-04-19T03:30:47;9.00;;;4.18;;
67130;SDS011;54051;53.464;49.532;2023-04-19T03:33:13;10.82;;;4.18;;
67130;SDS011;54051;53.464;49.532;2023-04-19T03:35:39;10.95;;;4.43;;
67130;SDS011;54051;53.464;49.532;2023-04-19T03:38:05;15.02;;;4.22;;
67130;SDS011;54051;53.464;49.532;2023-04-19T03:40:32;17.45;;;4.30;;
67130;SDS011;54051;53.464;49.532;2023-04-19T03:42:58;9.88;;;4.40;;
67130;SDS011;54051;53.464;49.532;2023-04-19T03:45:24;7.45;;;3.53;;
67130;SDS011;54051;53.464;49.532;2023-04-19T03:50:17;9.33;;;3.93;;
67130;SDS011;54051;53.464;49.532;2023-04-19T03:52:43;8.13;;;4.23;;
67130;SDS011;54051;53.464;49.532;2023-04-19T03:55:09;9.40;;;4.40;;
67130;SDS011;54051;53.464;49.532;2023-04-19T03:57:36;11.18;;;4.70;;
67130;SDS011;54051;53.464;49.532;2023-04-19T04:00:03;9.07;;;4.00;;
67130;SDS011;54051;53.464;49.532;2023-04-19T04:02:37;8.27;;;3.50;;
67130;SDS011;54051;53.464;49.532;2023-04-19T04:05:06;7.50;;;3.45;;
67130;SDS011;54051;53.464;49.532;2023-04-19T04:07:32;8.57;;;3.42;;
67130;SDS011;54051;53.464;49.532;2023-04-19T04:10:01;10.43;;;3.70;;
67130;SDS011;54051;53.464;49.532;2023-04-19T04:12:27;9.32;;;3.75;;
67130;SDS011;54051;53.464;49.532;2023-04-19T04:14:53;7.27;;;3.43;;
67130;SDS011;54051;53.464;49.532;2023-04-19T04:17:19;7.72;;;3.83;;
67130;SDS011;54051;53.464;49.532;2023-04-19T04:19:45;11.55;;;4.10;;
67130;SDS011;54051;53.464;49.532;2023-04-19T04:22:11;8.23;;;3.42;;
67130;SDS011;54051;53.464;49.532;2023-04-19T04:24:37;7.05;;;3.50;;
67130;SDS011;54051;53.464;49.532;2023-04-19T04:27:10;5.78;;;3.40;;
67130;SDS011;54051;53.464;49.532;2023-04-19T04:29:36;5.78;;;3.28;;
67130;SDS011;54051;53.464;49.532;2023-04-19T04:34:32;6.68;;;3.38;;
67130;SDS011;54051;53.464;49.532;2023-04-19T04:37:00;6.88;;;3.53;;
67130;SDS011;54051;53.464;49.532;2023-04-19T04:39:27;7.85;;;3.65;;
67130;SDS011;54051;53.464;49.532;2023-04-19T04:41:53;6.63;;;3.35;;
67130;SDS011;54051;53.464;49.532;2023-04-19T04:44:22;8.32;;;3.88;;
67130;SDS011;54051;53.464;49.532;2023-04-19T04:46:48;7.53;;;3.75;;
67130;SDS011;54051;53.464;49.532;2023-04-19T04:49:14;6.63;;;3.70;;
67130;SDS011;54051;53.464;49.532;2023-04-19T04:51:40;9.27;;;4.00;;
67130;SDS011;54051;53.464;49.532;2023-04-19T04:54:06;13.25;;;4.47;;
67130;SDS011;54051;53.464;49.532;2023-04-19T04:56:32;13.43;;;4.30;;
67130;SDS011;54051;53.464;49.532;2023-04-19T04:58:59;12.63;;;4.20;;
67130;SDS011;54051;53.464;49.532;2023-04-19T05:01:25;11.32;;;4.05;;
67130;SDS011;54051;53.464;49.532;2023-04-19T05:03:51;8.32;;;4.10;;
67130;SDS011;54051;53.464;49.532;2023-04-19T05:08:43;7.47;;;3.40;;
67130;SDS011;54051;53.464;49.532;2023-04-19T05:11:10;8.00;;;3.53;;
67130;SDS011;54051;53.464;49.532;2023-04-19T05:13:36;6.45;;;3.40;;
67130;SDS011;54051;53.464;49.532;2023-04-19T05:16:02;6.38;;;3.38;;
67130;SDS011;54051;53.464;49.532;2023-04-19T05:20:55;8.88;;;3.90;;
67130;SDS011;54051;53.464;49.532;2023-04-19T05:23:22;8.77;;;3.80;;
67130;SDS011;54051;53.464;49.532;2023-04-19T05:28:14;6.97;;;3.88;;
67130;SDS011;54051;53.464;49.532;2023-04-19T05:30:40;5.63;;;3.20;;
67130;SDS011;54051;53.464;49.532;2023-04-19T05:33:06;6.68;;;3.50;;
67130;SDS011;54051;53.464;49.532;2023-04-19T05:35:32;7.03;;;3.35;;
67130;SDS011;54051;53.464;49.532;2023-04-19T05:37:58;6.65;;;3.03;;
67130;SDS011;54051;53.464;49.532;2023-04-19T05:42:50;6.85;;;3.08;;
67130;SDS011;54051;53.464;49.532;2023-04-19T05:45:16;8.73;;;3.20;;
67130;SDS011;54051;53.464;49.532;2023-04-19T05:47:45;8.65;;;3.20;;
67130;SDS011;54051;53.464;49.532;2023-04-19T05:50:11;7.53;;;3.47;;
67130;SDS011;54051;53.464;49.532;2023-04-19T05:52:39;6.80;;;3.38;;
67130;SDS011;54051;53.464;49.532;2023-04-19T05:55:05;7.75;;;3.58;;
67130;SDS011;54051;53.464;49.532;2023-04-19T05:57:34;12.20;;;4.70;;
67130;SDS011;54051;53.464;49.532;2023-04-19T06:00:00;8.55;;;4.55;;
67130;SDS011;54051;53.464;49.532;2023-04-19T06:02:27;10.35;;;4.70;;
67130;SDS011;54051;53.464;49.532;2023-04-19T06:04:53;26.15;;;6.07;;
67130;SDS011;54051;53.464;49.532;2023-04-19T06:07:37;9.93;;;5.13;;
67130;SDS011;54051;53.464;49.532;2023-04-19T06:10:06;12.77;;;5.10;;
67130;SDS011;54051;53.464;49.532;2023-04-19T06:12:33;11.07;;;4.70;;
67130;SDS011;54051;53.464;49.532;2023-04-19T06:14:59;12.75;;;4.70;;
67130;SDS011;54051;53.464;49.532;2023-04-19T06:17:25;12.00;;;5.28;;
67130;SDS011;54051;53.464;49.532;2023-04-19T06:19:54;14.15;;;5.90;;
67130;SDS011;54051;53.464;49.532;2023-04-19T06:22:21;11.63;;;5.20;;
67130;SDS011;54051;53.464;49.532;2023-04-19T06:24:47;14.57;;;5.22;;
67130;SDS011;54051;53.464;49.532;2023-04-19T06:27:17;12.32;;;5.43;;
67130;SDS011;54051;53.464;49.532;2023-04-19T06:29:43;7.80;;;5.20;;
67130;SDS011;54051;53.464;49.532;2023-04-19T06:32:11;9.20;;;5.10;;
67130;SDS011;54051;53.464;49.532;2023-04-19T06:34:37;9.52;;;5.20;;
67130;SDS011;54051;53.464;49.532;2023-04-19T06:37:03;10.13;;;5.18;;
67130;SDS011;54051;53.464;49.532;2023-04-19T06:39:30;9.30;;;4.93;;
67130;SDS011;54051;53.464;49.532;2023-04-19T06:41:56;9.75;;;4.80;;
67130;SDS011;54051;53.464;49.532;2023-04-19T06:44:25;9.13;;;4.95;;
67130;SDS011;54051;53.464;49.532;2023-04-19T06:46:51;10.55;;;4.40;;
67130;SDS011;54051;53.464;49.532;2023-04-19T06:49:17;9.45;;;4.75;;
67130;SDS011;54051;53.464;49.532;2023-04-19T06:51:43;8.20;;;4.50;;
67130;SDS011;54051;53.464;49.532;2023-04-19T06:54:10;8.40;;;4.28;;
67130;SDS011;54051;53.464;49.532;2023-04-19T06:56:43;9.73;;;4.20;;
67130;SDS011;54051;53.464;49.532;2023-04-19T06:59:13;10.13;;;4.05;;
67130;SDS011;54051;53.464;49.532;2023-04-19T07:01:43;9.30;;;4.18;;
67130;SDS011;54051;53.464;49.532;2023-04-19T07:04:10;8.35;;;3.80;;
67130;SDS011;54051;53.464;49.532;2023-04-19T07:06:37;7.47;;;3.72;;
67130;SDS011;54051;53.464;49.532;2023-04-19T07:09:04;10.15;;;4.00;;
67130;SDS011;54051;53.464;49.532;2023-04-19T07:11:31;9.23;;;3.70;;
67130;SDS011;54051;53.464;49.532;2023-04-19T07:13:58;10.80;;;3.75;;
67130;SDS011;54051;53.464;49.532;2023-04-19T07:16:25;7.70;;;3.30;;
67130;SDS011;54051;53.464;49.532;2023-04-19T07:18:52;7.45;;;3.40;;
67130;SDS011;54051;53.464;49.532;2023-04-19T07:21:23;7.55;;;3.50;;
67130;SDS011;54051;53.464;49.532;2023-04-19T07:23:53;8.20;;;3.20;;
67130;SDS011;54051;53.464;49.532;2023-04-19T07:26:19;7.47;;;3.28;;
67130;SDS011;54051;53.464;49.532;2023-04-19T07:28:45;6.93;;;2.83;;
67130;SDS011;54051;53.464;49.532;2023-04-19T07:31:15;6.35;;;2.90;;
67130;SDS011;54051;53.464;49.532;2023-04-19T07:33:43;6.20;;;2.75;;
67130;SDS011;54051;53.464;49.532;2023-04-19T07:36:09;5.82;;;3.00;;
67130;SDS011;54051;53.464;49.532;2023-04-19T07:38:36;5.15;;;3.00;;
67130;SDS011;54051;53.464;49.532;2023-04-19T07:41:02;6.70;;;3.00;;
67130;SDS011;54051;53.464;49.532;2023-04-19T07:43:29;6.75;;;2.83;;
67130;SDS011;54051;53.464;49.532;2023-04-19T07:45:55;7.68;;;2.90;;
67130;SDS011;54051;53.464;49.532;2023-04-19T07:48:22;6.10;;;3.00;;
67130;SDS011;54051;53.464;49.532;2023-04-19T07:50:48;6.82;;;2.90;;
67130;SDS011;54051;53.464;49.532;2023-04-19T07:53:15;7.68;;;2.92;;
67130;SDS011;54051;53.464;49.532;2023-04-19T07:55:41;5.32;;;2.60;;
67130;SDS011;54051;53.464;49.532;2023-04-19T07:58:07;5.45;;;2.70;;
67130;SDS011;54051;53.464;49.532;2023-04-19T08:00:33;6.30;;;2.45;;
67130;SDS011;54051;53.464;49.532;2023-04-19T08:03:01;5.38;;;2.60;;
67130;SDS011;54051;53.464;49.532;2023-04-19T08:05:29;5.18;;;2.58;;
67130;SDS011;54051;53.464;49.532;2023-04-19T08:07:58;6.15;;;2.55;;
67130;SDS011;54051;53.464;49.532;2023-04-19T08:10:29;5.43;;;2.28;;
67130;SDS011;54051;53.464;49.532;2023-04-19T08:12:55;5.80;;;2.50;;
67130;SDS011;54051;53.464;49.532;2023-04-19T08:15:21;4.78;;;2.30;;
67130;SDS011;54051;53.464;49.532;2023-04-19T08:17:47;5.20;;;2.20;;
67130;SDS011;54051;53.464;49.532;2023-04-19T08:20:13;4.63;;;2.10;;
67130;SDS011;54051;53.464;49.532;2023-04-19T08:22:40;5.53;;;2.22;;
67130;SDS011;54051;53.464;49.532;2023-04-19T08:25:09;4.60;;;2.00;;
67130;SDS011;54051;53.464;49.532;2023-04-19T08:27:38;4.68;;;2.08;;
67130;SDS011;54051;53.464;49.532;2023-04-19T08:30:04;6.15;;;2.50;;
67130;SDS011;54051;53.464;49.532;2023-04-19T08:32:32;5.03;;;2.10;;
67130;SDS011;54051;53.464;49.532;2023-04-19T08:37:25;5.63;;;2.40;;
67130;SDS011;54051;53.464;49.532;2023-04-19T08:39:52;6.97;;;2.45;;
67130;SDS011;54051;53.464;49.532;2023-04-19T08:42:18;4.30;;;2.03;;
67130;SDS011;54051;53.464;49.532;2023-04-19T08:47:10;5.25;;;1.90;;
67130;SDS011;54051;53.464;49.532;2023-04-19T08:49:38;4.68;;;1.85;;
67130;SDS011;54051;53.464;49.532;2023-04-19T08:52:05;6.10;;;2.10;;
67130;SDS011;54051;53.464;49.532;2023-04-19T08:54:33;8.07;;;2.22;;
67130;SDS011;54051;53.464;49.532;2023-04-19T08:57:00;5.82;;;2.15;;
67130;SDS011;54051;53.464;49.532;2023-04-19T08:59:27;4.38;;;2.10;;
67130;SDS011;54051;53.464;49.532;2023-04-19T09:01:55;4.72;;;2.00;;
67130;SDS011;54051;53.464;49.532;2023-04-19T09:04:28;7.00;;;2.10;;
67130;SDS011;54051;53.464;49.532;2023-04-19T09:06:54;4.65;;;1.95;;
67130;SDS011;54051;53.464;49.532;2023-04-19T09:09:21;4.90;;;1.92;;
67130;SDS011;54051;53.464;49.532;2023-04-19T09:11:48;6.88;;;2.10;;
67130;SDS011;54051;53.464;49.532;2023-04-19T09:16:42;5.05;;;1.80;;
67130;SDS011;54051;53.464;49.532;2023-04-19T09:19:09;4.68;;;2.00;;
67130;SDS011;54051;53.464;49.532;2023-04-19T09:21:40;4.63;;;2.00;;
67130;SDS011;54051;53.464;49.532;2023-04-19T09:24:09;4.57;;;1.73;;
67130;SDS011;54051;53.464;49.532;2023-04-19T09:26:35;5.88;;;1.83;;
67130;SDS011;54051;53.464;49.532;2023-04-19T09:29:04;3.92;;;1.77;;
67130;SDS011;54051;53.464;49.532;2023-04-19T09:31:32;5.90;;;1.80;;
67130;SDS011;54051;53.464;49.532;2023-04-19T09:34:12;4.80;;;1.80;;
67130;SDS011;54051;53.464;49.532;2023-04-19T09:36:40;5.65;;;2.58;;
67130;SDS011;54051;53.464;49.532;2023-04-19T09:39:06;5.68;;;2.20;;
67130;SDS011;54051;53.464;49.532;2023-04-19T09:41:53;6.95;;;2.95;;
67130;SDS011;54051;53.464;49.532;2023-04-19T09:44:23;6.03;;;2.30;;
67130;SDS011;54051;53.464;49.532;2023-04-19T09:46:52;4.38;;;2.10;;
67130;SDS011;54051;53.464;49.532;2023-04-19T09:49:20;4.38;;;1.80;;
67130;SDS011;54051;53.464;49.532;2023-04-19T09:51:49;5.70;;;2.20;;
67130;SDS011;54051;53.464;49.532;2023-04-19T09:54:17;5.32;;;1.90;;
67130;SDS011;54051;53.464;49.532;2023-04-19T09:56:44;7.45;;;2.13;;
67130;SDS011;54051;53.464;49.532;2023-04-19T09:59:11;5.75;;;1.75;;
67130;SDS011;54051;53.464;49.532;2023-04-19T10:01:45;6.90;;;1.95;;
67130;SDS011;54051;53.464;49.532;2023-04-19T10:04:13;4.68;;;2.10;;
67130;SDS011;54051;53.464;49.532;2023-04-19T10:06:47;4.63;;;1.90;;
67130;SDS011;54051;53.464;49.532;2023-04-19T10:09:15;6.22;;;1.65;;
67130;SDS011;54051;53.464;49.532;2023-04-19T10:11:51;6.30;;;1.70;;
67130;SDS011;54051;53.464;49.532;2023-04-19T10:14:20;4.72;;;1.80;;
67130;SDS011;54051;53.464;49.532;2023-04-19T10:16:49;5.28;;;2.00;;
67130;SDS011;54051;53.464;49.532;2023-04-19T10:19:19;7.95;;;2.13;;
67130;SDS011;54051;53.464;49.532;2023-04-19T10:21:47;3.90;;;1.80;;
67130;SDS011;54051;53.464;49.532;2023-04-19T10:24:16;5.28;;;1.92;;
67130;SDS011;54051;53.464;49.532;2023-04-19T10:29:53;5.75;;;2.00;;
67130;SDS011;54051;53.464;49.532;2023-04-19T10:32:27;5.50;;;2.10;;
67130;SDS011;54051;53.464;49.532;2023-04-19T10:35:06;6.25;;;1.75;;
67130;SDS011;54051;53.464;49.532;2023-04-19T10:37:42;4.43;;;1.70;;
67130;SDS011;54051;53.464;49.532;2023-04-19T10:43:34;5.55;;;1.77;;
67130;SDS011;54051;53.464;49.532;2023-04-19T10:48:35;4.72;;;1.80;;
67130;SDS011;54051;53.464;49.532;2023-04-19T10:51:13;5.00;;;1.80;;
67130;SDS011;54051;53.464;49.532;2023-04-19T10:56:19;4.32;;;1.75;;
67130;SDS011;54051;53.464;49.532;2023-04-19T11:01:38;8.40;;;1.80;;
67130;SDS011;54051;53.464;49.532;2023-04-19T11:04:09;4.32;;;1.80;;
67130;SDS011;54051;53.464;49.532;2023-04-19T11:09:23;4.85;;;1.80;;
67130;SDS011;54051;53.464;49.532;2023-04-19T11:11:57;5.28;;;1.95;;
67130;SDS011;54051;53.464;49.532;2023-04-19T11:14:33;4.20;;;1.77;;
67130;SDS011;54051;53.464;49.532;2023-04-19T11:17:02;4.95;;;2.00;;
67130;SDS011;54051;53.464;49.532;2023-04-19T11:19:38;4.10;;;1.83;;
67130;SDS011;54051;53.464;49.532;2023-04-19T11:22:08;4.25;;;1.70;;
67130;SDS011;54051;53.464;49.532;2023-04-19T11:24:34;5.25;;;1.90;;
67130;SDS011;54051;53.464;49.532;2023-04-19T11:27:00;4.10;;;1.77;;
67130;SDS011;54051;53.464;49.532;2023-04-19T11:29:33;5.45;;;1.85;;
67130;SDS011;54051;53.464;49.532;2023-04-19T11:32:00;4.68;;;2.08;;
67130;SDS011;54051;53.464;49.532;2023-04-19T11:34:26;5.03;;;2.10;;
67130;SDS011;54051;53.464;49.532;2023-04-19T11:36:52;4.53;;;1.77;;
67130;SDS011;54051;53.464;49.532;2023-04-19T11:39:18;5.88;;;1.70;;
67130;SDS011;54051;53.464;49.532;2023-04-19T11:41:46;4.65;;;1.92;;
67130;SDS011;54051;53.464;49.532;2023-04-19T11:44:12;4.65;;;1.80;;
67130;SDS011;54051;53.464;49.532;2023-04-19T11:46:57;5.78;;;1.90;;
67130;SDS011;54051;53.464;49.532;2023-04-19T11:49:33;3.88;;;1.80;;
67130;SDS011;54051;53.464;49.532;2023-04-19T11:52:00;5.03;;;1.80;;
67130;SDS011;54051;53.464;49.532;2023-04-19T11:54:30;4.82;;;1.80;;
67130;SDS011;54051;53.464;49.532;2023-04-19T11:57:02;4.15;;;1.88;;
67130;SDS011;54051;53.464;49.532;2023-04-19T11:59:34;4.78;;;1.92;;
67130;SDS011;54051;53.464;49.532;2023-04-19T12:02:11;4.40;;;1.85;;
67130;SDS011;54051;53.464;49.532;2023-04-19T12:07:04;4.75;;;1.90;;
67130;SDS011;54051;53.464;49.532;2023-04-19T12:09:34;6.30;;;1.98;;
67130;SDS011;54051;53.464;49.532;2023-04-19T12:12:01;4.90;;;2.08;;
67130;SDS011;54051;53.464;49.532;2023-04-19T12:14:28;5.65;;;1.83;;
67130;SDS011;54051;53.464;49.532;2023-04-19T12:17:05;4.63;;;1.92;;
67130;SDS011;54051;53.464;49.532;2023-04-19T12:22:14;4.80;;;2.10;;
67130;SDS011;54051;53.464;49.532;2023-04-19T12:24:42;7.72;;;2.20;;
67130;SDS011;54051;53.464;49.532;2023-04-19T12:27:17;5.10;;;2.17;;
67130;SDS011;54051;53.464;49.532;2023-04-19T12:29:43;4.43;;;2.03;;
67130;SDS011;54051;53.464;49.532;2023-04-19T12:32:10;5.10;;;2.10;;
67130;SDS011;54051;53.464;49.532;2023-04-19T12:37:03;5.53;;;2.08;;
67130;SDS011;54051;53.464;49.532;2023-04-19T12:39:29;5.63;;;2.30;;
67130;SDS011;54051;53.464;49.532;2023-04-19T12:41:55;5.93;;;2.30;;
67130;SDS011;54051;53.464;49.532;2023-04-19T12:44:22;4.55;;;1.85;;
67130;SDS011;54051;53.464;49.532;2023-04-19T12:46:48;5.20;;;1.98;;
67130;SDS011;54051;53.464;49.532;2023-04-19T12:49:16;5.43;;;2.17;;
67130;SDS011;54051;53.464;49.532;2023-04-19T12:51:44;4.85;;;2.00;;
67130;SDS011;54051;53.464;49.532;2023-04-19T12:54:12;5.30;;;1.80;;
67130;SDS011;54051;53.464;49.532;2023-04-19T12:56:40;7.50;;;2.28;;
67130;SDS011;54051;53.464;49.532;2023-04-19T12:59:06;4.97;;;1.75;;
67130;SDS011;54051;53.464;49.532;2023-04-19T13:01:32;5.85;;;1.80;;
67130;SDS011;54051;53.464;49.532;2023-04-19T13:03:58;4.28;;;2.03;;
67130;SDS011;54051;53.464;49.532;2023-04-19T13:06:25;4.95;;;1.80;;
67130;SDS011;54051;53.464;49.532;2023-04-19T13:08:52;4.63;;;1.90;;
67130;SDS011;54051;53.464;49.532;2023-04-19T13:11:18;4.57;;;2.05;;
67130;SDS011;54051;53.464;49.532;2023-04-19T13:13:48;4.57;;;1.80;;
67130;SDS011;54051;53.464;49.532;2023-04-19T13:16:16;7.78;;;2.05;;
67130;SDS011;54051;53.464;49.532;2023-04-19T13:21:08;5.47;;;1.90;;
67130;SDS011;54051;53.464;49.532;2023-04-19T13:23:34;6.18;;;2.45;;
67130;SDS011;54051;53.464;49.532;2023-04-19T13:26:01;7.20;;;2.97;;
67130;SDS011;54051;53.464;49.532;2023-04-19T13:28:27;8.60;;;2.65;;
67130;SDS011;54051;53.464;49.532;2023-04-19T13:30:54;7.53;;;3.20;;
67130;SDS011;54051;53.464;49.532;2023-04-19T13:33:20;4.50;;;2.15;;
67130;SDS011;54051;53.464;49.532;2023-04-19T13:35:47;7.10;;;2.90;;
67130;SDS011;54051;53.464;49.532;2023-04-19T13:38:13;5.00;;;1.93;;
67130;SDS011;54051;53.464;49.532;2023-04-19T13:40:39;4.25;;;1.98;;
67130;SDS011;54051;53.464;49.532;2023-04-19T13:43:05;6.03;;;2.20;;
67130;SDS011;54051;53.464;49.532;2023-04-19T13:45:31;5.67;;;2.00;;
67130;SDS011;54051;53.464;49.532;2023-04-19T13:47:57;6.13;;;2.00;;
67130;SDS011;54051;53.464;49.532;2023-04-19T13:50:23;8.93;;;3.57;;
67130;SDS011;54051;53.464;49.532;2023-04-19T13:52:52;8.60;;;3.40;;
67130;SDS011;54051;53.464;49.532;2023-04-19T13:56:09;5.53;;;2.35;;
67130;SDS011;54051;53.464;49.532;2023-04-19T13:58:35;7.93;;;2.33;;
67130;SDS011;54051;53.464;49.532;2023-04-19T14:01:02;7.57;;;2.22;;
67130;SDS011;54051;53.464;49.532;2023-04-19T14:03:28;7.97;;;3.17;;
67130;SDS011;54051;53.464;49.532;2023-04-19T14:05:54;7.45;;;2.65;;
67130;SDS011;54051;53.464;49.532;2023-04-19T14:08:21;5.53;;;2.38;;
67130;SDS011;54051;53.464;49.532;2023-04-19T14:10:48;6.80;;;3.27;;
67130;SDS011;54051;53.464;49.532;2023-04-19T14:13:19;7.20;;;2.35;;
67130;SDS011;54051;53.464;49.532;2023-04-19T14:19:42;6.05;;;2.60;;
67130;SDS011;54051;53.464;49.532;2023-04-19T14:22:08;6.22;;;2.30;;
67130;SDS011;54051;53.464;49.532;2023-04-19T14:24:34;9.52;;;3.10;;
67130;SDS011;54051;53.464;49.532;2023-04-19T14:27:00;8.18;;;2.60;;
67130;SDS011;54051;53.464;49.532;2023-04-19T14:29:26;6.97;;;3.10;;
67130;SDS011;54051;53.464;49.532;2023-04-19T14:31:55;6.80;;;2.40;;
67130;SDS011;54051;53.464;49.532;2023-04-19T14:34:23;8.57;;;2.60;;
67130;SDS011;54051;53.464;49.532;2023-04-19T14:36:50;7.93;;;2.63;;
67130;SDS011;54051;53.464;49.532;2023-04-19T14:39:16;7.30;;;2.33;;
67130;SDS011;54051;53.464;49.532;2023-04-19T14:41:42;5.30;;;2.10;;
67130;SDS011;54051;53.464;49.532;2023-04-19T14:44:08;12.00;;;2.22;;
67130;SDS011;54051;53.464;49.532;2023-04-19T14:46:34;4.40;;;1.90;;
67130;SDS011;54051;53.464;49.532;2023-04-19T14:49:00;8.90;;;2.17;;
67130;SDS011;54051;53.464;49.532;2023-04-19T14:51:32;6.55;;;2.15;;
67130;SDS011;54051;53.464;49.532;2023-04-19T14:53:58;5.40;;;2.37;;
67130;SDS011;54051;53.464;49.532;2023-04-19T14:56:24;6.53;;;2.73;;
67130;SDS011;54051;53.464;49.532;2023-04-19T14:58:53;6.60;;;3.05;;
67130;SDS011;54051;53.464;49.532;2023-04-19T15:01:19;9.32;;;3.90;;
67130;SDS011;54051;53.464;49.532;2023-04-19T15:03:47;13.75;;;3.28;;
67130;SDS011;54051;53.464;49.532;2023-04-19T15:06:14;46.65;;;5.45;;
67130;SDS011;54051;53.464;49.532;2023-04-19T15:08:41;18.80;;;3.38;;
67130;SDS011;54051;53.464;49.532;2023-04-19T15:11:07;6.30;;;2.78;;
67130;SDS011;54051;53.464;49.532;2023-04-19T15:13:34;7.70;;;2.70;;
67130;SDS011;54051;53.464;49.532;2023-04-19T15:16:00;7.43;;;3.80;;
67130;SDS011;54051;53.464;49.532;2023-04-19T15:18:28;15.50;;;7.47;;
67130;SDS011;54051;53.464;49.532;2023-04-19T15:20:54;7.45;;;3.13;;
67130;SDS011;54051;53.464;49.532;2023-04-19T15:25:48;9.00;;;2.28;;
67130;SDS011;54051;53.464;49.532;2023-04-19T15:28:14;9.67;;;2.40;;